sensor_id;sensor_type;location;lat;lon;timestamp;temperature;humidity
37086;DHT22;23001;45.952;12.676;2023-04-24T00:02:13;15.90;99.90
37086;DHT22;23001;45.952;12.676;2023-04-24T00:04:39;15.90;99.90
37086;DHT22;23001;45.952;12.676;2023-04-24T00:07:10;15.90;99.90
37086;DHT22;23001;45.952;12.676;2023-04-24T00:09:39;15.80;99.90
37086;DHT22;23001;45.952;12.676;2023-04-24T00:12:05;15.80;99.90
37086;DHT22;23001;45.952;12.676;2023-04-24T00:14:31;15.80;99.90
37086;DHT22;23001;45.952;12.676;2023-04-24T00:16:57;15.80;99.90
37086;DHT22;23001;45.952;12.676;2023-04-24T00:19:22;15.80;99.90
37086;DHT22;23001;45.952;12.676;2023-04-24T00:21:48;15.70;99.90
37086;DHT22;23001;45.952;12.676;2023-04-24T00:24:16;15.70;99.90
37086;DHT22;23001;45.952;12.676;2023-04-24T00:26:42;15.70;99.90
37086;DHT22;23001;45.952;12.676;2023-04-24T00:29:08;15.80;99.90
37086;DHT22;23001;45.952;12.676;2023-04-24T00:31:34;15.70;99.90
37086;DHT22;23001;45.952;12.676;2023-04-24T00:34:00;15.70;99.90
37086;DHT22;23001;45.952;12.676;2023-04-24T00:36:27;15.80;99.90
37086;DHT22;23001;45.952;12.676;2023-04-24T00:38:53;15.70;99.90
37086;DHT22;23001;45.952;12.676;2023-04-24T00:41:18;15.70;99.90
37086;DHT22;23001;45.952;12.676;2023-04-24T00:43:46;15.70;99.90
37086;DHT22;23001;45.952;12.676;2023-04-24T00:46:13;15.70;99.90
37086;DHT22;23001;45.952;12.676;2023-04-24T00:48:39;15.70;99.90
37086;DHT22;23001;45.952;12.676;2023-04-24T00:51:05;15.60;99.90
37086;DHT22;23001;45.952;12.676;2023-04-24T00:53:31;15.50;99.90
37086;DHT22;23001;45.952;12.676;2023-04-24T00:55:58;15.50;99.90
37086;DHT22;23001;45.952;12.676;2023-04-24T00:58:24;15.50;99.90
37086;DHT22;23001;45.952;12.676;2023-04-24T01:00:50;15.50;99.90
37086;DHT22;23001;45.952;12.676;2023-04-24T01:03:21;15.50;99.90
37086;DHT22;23001;45.952;12.676;2023-04-24T01:05:48;15.40;99.90
37086;DHT22;23001;45.952;12.676;2023-04-24T01:08:14;15.40;99.90
37086;DHT22;23001;45.952;12.676;2023-04-24T01:10:43;15.50;99.90
37086;DHT22;23001;45.952;12.676;2023-04-24T01:13:09;15.40;99.90
37086;DHT22;23001;45.952;12.676;2023-04-24T01:15:35;15.40;99.90
37086;DHT22;23001;45.952;12.676;2023-04-24T01:18:00;15.40;99.90
37086;DHT22;23001;45.952;12.676;2023-04-24T01:20:26;15.40;99.90
37086;DHT22;23001;45.952;12.676;2023-04-24T01:22:53;15.40;99.90
37086;DHT22;23001;45.952;12.676;2023-04-24T01:25:20;15.40;99.90
37086;DHT22;23001;45.952;12.676;2023-04-24T01:27:45;15.40;99.90
37086;DHT22;23001;45.952;12.676;2023-04-24T01:30:11;15.40;99.90
37086;DHT22;23001;45.952;12.676;2023-04-24T01:32:37;15.40;99.90
37086;DHT22;23001;45.952;12.676;2023-04-24T01:35:03;15.40;99.90
37086;DHT22;23001;45.952;12.676;2023-04-24T01:37:29;15.30;99.90
37086;DHT22;23001;45.952;12.676;2023-04-24T01:39:57;15.30;99.90
37086;DHT22;23001;45.952;12.676;2023-04-24T01:42:23;15.20;99.90
37086;DHT22;23001;45.952;12.676;2023-04-24T01:44:48;15.20;99.90
37086;DHT22;23001;45.952;12.676;2023-04-24T01:47:14;15.30;99.90
37086;DHT22;23001;45.952;12.676;2023-04-24T01:49:40;15.20;99.90
37086;DHT22;23001;45.952;12.676;2023-04-24T01:52:06;15.30;99.90
37086;DHT22;23001;45.952;12.676;2023-04-24T01:54:32;15.30;99.90
37086;DHT22;23001;45.952;12.676;2023-04-24T01:56:57;15.30;99.90
37086;DHT22;23001;45.952;12.676;2023-04-24T01:59:23;15.30;99.90
37086;DHT22;23001;45.952;12.676;2023-04-24T02:01:50;15.20;99.90
37086;DHT22;23001;45.952;12.676;2023-04-24T02:04:16;15.20;99.90
37086;DHT22;23001;45.952;12.676;2023-04-24T02:06:41;15.20;99.90
37086;DHT22;23001;45.952;12.676;2023-04-24T02:09:07;15.20;99.90
37086;DHT22;23001;45.952;12.676;2023-04-24T02:11:35;15.20;99.90
37086;DHT22;23001;45.952;12.676;2023-04-24T02:14:01;15.20;99.90
37086;DHT22;23001;45.952;12.676;2023-04-24T02:16:27;15.20;99.90
37086;DHT22;23001;45.952;12.676;2023-04-24T02:18:55;15.20;99.90
37086;DHT22;23001;45.952;12.676;2023-04-24T02:21:21;15.20;99.90
37086;DHT22;23001;45.952;12.676;2023-04-24T02:23:46;15.20;99.90
37086;DHT22;23001;45.952;12.676;2023-04-24T02:26:12;15.20;99.90
37086;DHT22;23001;45.952;12.676;2023-04-24T02:28:38;15.20;99.90
37086;DHT22;23001;45.952;12.676;2023-04-24T02:31:03;15.20;99.90
37086;DHT22;23001;45.952;12.676;2023-04-24T02:33:30;15.20;99.90
37086;DHT22;23001;45.952;12.676;2023-04-24T02:35:56;15.10;99.90
37086;DHT22;23001;45.952;12.676;2023-04-24T02:38:21;15.10;99.90
37086;DHT22;23001;45.952;12.676;2023-04-24T02:40:47;15.10;99.90
37086;DHT22;23001;45.952;12.676;2023-04-24T02:43:13;15.10;99.90
37086;DHT22;23001;45.952;12.676;2023-04-24T02:45:38;15.10;99.90
37086;DHT22;23001;45.952;12.676;2023-04-24T02:48:04;15.10;99.90
37086;DHT22;23001;45.952;12.676;2023-04-24T02:50:30;15.10;99.90
37086;DHT22;23001;45.952;12.676;2023-04-24T02:52:55;15.10;99.90
37086;DHT22;23001;45.952;12.676;2023-04-24T02:55:21;15.10;99.90
37086;DHT22;23001;45.952;12.676;2023-04-24T02:57:46;15.10;99.90
37086;DHT22;23001;45.952;12.676;2023-04-24T03:00:15;15.10;99.90
37086;DHT22;23001;45.952;12.676;2023-04-24T03:02:41;15.10;99.90
37086;DHT22;23001;45.952;12.676;2023-04-24T03:05:06;15.10;99.90
37086;DHT22;23001;45.952;12.676;2023-04-24T03:07:32;15.00;99.90
37086;DHT22;23001;45.952;12.676;2023-04-24T03:09:58;15.10;99.90
37086;DHT22;23001;45.952;12.676;2023-04-24T03:12:27;15.00;99.90
37086;DHT22;23001;45.952;12.676;2023-04-24T03:14:52;15.10;99.90
37086;DHT22;23001;45.952;12.676;2023-04-24T03:17:18;15.10;99.90
37086;DHT22;23001;45.952;12.676;2023-04-24T03:19:44;15.10;99.90
37086;DHT22;23001;45.952;12.676;2023-04-24T03:22:10;15.10;99.90
37086;DHT22;23001;45.952;12.676;2023-04-24T03:24:36;15.10;99.90
37086;DHT22;23001;45.952;12.676;2023-04-24T03:27:02;15.10;99.90
37086;DHT22;23001;45.952;12.676;2023-04-24T03:29:27;15.00;99.90
37086;DHT22;23001;45.952;12.676;2023-04-24T03:31:55;15.00;99.90
37086;DHT22;23001;45.952;12.676;2023-04-24T03:34:21;15.00;99.90
37086;DHT22;23001;45.952;12.676;2023-04-24T03:36:49;14.90;99.90
37086;DHT22;23001;45.952;12.676;2023-04-24T03:39:15;15.00;99.90
37086;DHT22;23001;45.952;12.676;2023-04-24T03:41:41;14.90;99.90
37086;DHT22;23001;45.952;12.676;2023-04-24T03:44:09;15.00;99.90
37086;DHT22;23001;45.952;12.676;2023-04-24T03:46:35;15.00;99.90
37086;DHT22;23001;45.952;12.676;2023-04-24T03:49:03;15.00;99.90
37086;DHT22;23001;45.952;12.676;2023-04-24T03:51:29;14.90;99.90
37086;DHT22;23001;45.952;12.676;2023-04-24T03:53:56;14.90;99.90
37086;DHT22;23001;45.952;12.676;2023-04-24T03:56:21;15.00;99.90
37086;DHT22;23001;45.952;12.676;2023-04-24T03:58:47;15.00;99.90
37086;DHT22;23001;45.952;12.676;2023-04-24T04:01:13;15.00;99.90
37086;DHT22;23001;45.952;12.676;2023-04-24T04:03:41;15.00;99.90
37086;DHT22;23001;45.952;12.676;2023-04-24T04:06:10;15.00;99.90
37086;DHT22;23001;45.952;12.676;2023-04-24T04:08:36;15.00;99.90
37086;DHT22;23001;45.952;12.676;2023-04-24T04:11:02;15.00;99.90
37086;DHT22;23001;45.952;12.676;2023-04-24T04:13:28;15.10;99.90
37086;DHT22;23001;45.952;12.676;2023-04-24T04:15:54;15.10;99.90
37086;DHT22;23001;45.952;12.676;2023-04-24T04:18:20;15.10;99.90
37086;DHT22;23001;45.952;12.676;2023-04-24T04:20:45;15.10;99.90
37086;DHT22;23001;45.952;12.676;2023-04-24T04:23:11;15.10;99.90
37086;DHT22;23001;45.952;12.676;2023-04-24T04:25:40;15.10;99.90
37086;DHT22;23001;45.952;12.676;2023-04-24T04:28:08;15.10;99.90
37086;DHT22;23001;45.952;12.676;2023-04-24T04:30:33;15.00;99.90
37086;DHT22;23001;45.952;12.676;2023-04-24T04:32:59;15.10;99.90
37086;DHT22;23001;45.952;12.676;2023-04-24T04:35:25;15.10;99.90
37086;DHT22;23001;45.952;12.676;2023-04-24T04:37:51;15.10;99.90
37086;DHT22;23001;45.952;12.676;2023-04-24T04:40:17;15.10;99.90
37086;DHT22;23001;45.952;12.676;2023-04-24T04:42:42;15.10;99.90
37086;DHT22;23001;45.952;12.676;2023-04-24T04:45:11;15.10;99.90
37086;DHT22;23001;45.952;12.676;2023-04-24T04:47:37;15.10;99.90
37086;DHT22;23001;45.952;12.676;2023-04-24T04:50:03;15.10;99.90
37086;DHT22;23001;45.952;12.676;2023-04-24T04:52:29;15.10;99.90
37086;DHT22;23001;45.952;12.676;2023-04-24T04:54:55;15.10;99.90
37086;DHT22;23001;45.952;12.676;2023-04-24T04:57:20;15.10;99.90
37086;DHT22;23001;45.952;12.676;2023-04-24T04:59:46;15.10;99.90
37086;DHT22;23001;45.952;12.676;2023-04-24T05:02:12;15.10;99.90
37086;DHT22;23001;45.952;12.676;2023-04-24T05:04:38;15.20;99.90
37086;DHT22;23001;45.952;12.676;2023-04-24T05:07:03;15.30;99.90
37086;DHT22;23001;45.952;12.676;2023-04-24T05:09:29;15.30;99.90
37086;DHT22;23001;45.952;12.676;2023-04-24T05:11:55;15.20;99.90
37086;DHT22;23001;45.952;12.676;2023-04-24T05:14:21;15.20;99.90
37086;DHT22;23001;45.952;12.676;2023-04-24T05:16:47;15.20;99.90
37086;DHT22;23001;45.952;12.676;2023-04-24T05:19:13;15.20;99.90
37086;DHT22;23001;45.952;12.676;2023-04-24T05:21:39;15.20;99.90
37086;DHT22;23001;45.952;12.676;2023-04-24T05:24:05;15.20;99.90
37086;DHT22;23001;45.952;12.676;2023-04-24T05:26:31;15.20;99.90
37086;DHT22;23001;45.952;12.676;2023-04-24T05:28:59;15.20;99.90
37086;DHT22;23001;45.952;12.676;2023-04-24T05:31:25;15.10;99.90
37086;DHT22;23001;45.952;12.676;2023-04-24T05:33:51;15.10;99.90
37086;DHT22;23001;45.952;12.676;2023-04-24T05:36:16;15.10;99.90
37086;DHT22;23001;45.952;12.676;2023-04-24T05:38:42;15.10;99.90
37086;DHT22;23001;45.952;12.676;2023-04-24T05:41:08;15.10;99.90
37086;DHT22;23001;45.952;12.676;2023-04-24T05:43:33;15.10;99.90
37086;DHT22;23001;45.952;12.676;2023-04-24T05:45:59;15.10;99.90
37086;DHT22;23001;45.952;12.676;2023-04-24T05:48:24;15.10;99.90
37086;DHT22;23001;45.952;12.676;2023-04-24T05:50:51;15.10;99.90
37086;DHT22;23001;45.952;12.676;2023-04-24T05:53:18;15.10;99.90
37086;DHT22;23001;45.952;12.676;2023-04-24T05:55:43;15.10;99.90
37086;DHT22;23001;45.952;12.676;2023-04-24T05:58:09;15.00;99.90
37086;DHT22;23001;45.952;12.676;2023-04-24T06:00:35;15.00;99.90
37086;DHT22;23001;45.952;12.676;2023-04-24T06:03:01;15.10;99.90
37086;DHT22;23001;45.952;12.676;2023-04-24T06:05:29;15.10;99.90
37086;DHT22;23001;45.952;12.676;2023-04-24T06:07:55;15.00;99.90
37086;DHT22;23001;45.952;12.676;2023-04-24T06:10:21;15.00;99.90
37086;DHT22;23001;45.952;12.676;2023-04-24T06:12:46;15.00;99.90
37086;DHT22;23001;45.952;12.676;2023-04-24T06:15:12;15.00;99.90
37086;DHT22;23001;45.952;12.676;2023-04-24T06:17:38;15.00;99.90
37086;DHT22;23001;45.952;12.676;2023-04-24T06:20:04;14.90;99.90
37086;DHT22;23001;45.952;12.676;2023-04-24T06:22:31;14.80;99.90
37086;DHT22;23001;45.952;12.676;2023-04-24T06:25:00;14.90;99.90
37086;DHT22;23001;45.952;12.676;2023-04-24T06:27:26;14.80;99.90
37086;DHT22;23001;45.952;12.676;2023-04-24T06:29:52;14.80;99.90
37086;DHT22;23001;45.952;12.676;2023-04-24T06:32:23;14.80;99.90
37086;DHT22;23001;45.952;12.676;2023-04-24T06:34:50;14.80;99.90
37086;DHT22;23001;45.952;12.676;2023-04-24T06:37:16;14.80;99.90
37086;DHT22;23001;45.952;12.676;2023-04-24T06:39:41;14.80;99.90
37086;DHT22;23001;45.952;12.676;2023-04-24T06:42:07;14.80;99.90
37086;DHT22;23001;45.952;12.676;2023-04-24T06:44:35;14.80;99.90
37086;DHT22;23001;45.952;12.676;2023-04-24T06:47:09;14.80;99.90
37086;DHT22;23001;45.952;12.676;2023-04-24T06:49:35;14.80;99.90
37086;DHT22;23001;45.952;12.676;2023-04-24T06:52:01;14.80;99.90
37086;DHT22;23001;45.952;12.676;2023-04-24T06:54:26;14.80;99.90
37086;DHT22;23001;45.952;12.676;2023-04-24T06:56:52;14.80;99.90
37086;DHT22;23001;45.952;12.676;2023-04-24T06:59:18;14.80;99.90
37086;DHT22;23001;45.952;12.676;2023-04-24T07:01:43;14.90;99.90
37086;DHT22;23001;45.952;12.676;2023-04-24T07:04:09;15.00;99.90
37086;DHT22;23001;45.952;12.676;2023-04-24T07:06:34;14.90;99.90
37086;DHT22;23001;45.952;12.676;2023-04-24T07:09:01;14.90;99.90
37086;DHT22;23001;45.952;12.676;2023-04-24T07:11:26;15.00;99.90
37086;DHT22;23001;45.952;12.676;2023-04-24T07:13:55;15.00;99.90
37086;DHT22;23001;45.952;12.676;2023-04-24T07:16:20;15.10;99.90
37086;DHT22;23001;45.952;12.676;2023-04-24T07:18:46;15.10;99.90
37086;DHT22;23001;45.952;12.676;2023-04-24T07:21:12;15.10;99.90
37086;DHT22;23001;45.952;12.676;2023-04-24T07:23:37;15.00;99.90
37086;DHT22;23001;45.952;12.676;2023-04-24T07:26:03;15.00;99.90
37086;DHT22;23001;45.952;12.676;2023-04-24T07:28:29;14.90;99.90
37086;DHT22;23001;45.952;12.676;2023-04-24T07:30:56;14.90;99.90
37086;DHT22;23001;45.952;12.676;2023-04-24T07:33:22;15.00;99.90
37086;DHT22;23001;45.952;12.676;2023-04-24T07:35:48;14.90;99.90
37086;DHT22;23001;45.952;12.676;2023-04-24T07:38:13;14.80;99.90
37086;DHT22;23001;45.952;12.676;2023-04-24T07:40:39;14.90;99.90
37086;DHT22;23001;45.952;12.676;2023-04-24T07:43:05;14.80;99.90
37086;DHT22;23001;45.952;12.676;2023-04-24T07:45:31;14.90;99.90
37086;DHT22;23001;45.952;12.676;2023-04-24T07:47:58;14.90;99.90
37086;DHT22;23001;45.952;12.676;2023-04-24T07:50:24;14.90;99.90
37086;DHT22;23001;45.952;12.676;2023-04-24T07:52:50;14.80;99.90
37086;DHT22;23001;45.952;12.676;2023-04-24T07:55:15;14.90;99.90
37086;DHT22;23001;45.952;12.676;2023-04-24T07:57:41;14.90;99.90
37086;DHT22;23001;45.952;12.676;2023-04-24T08:00:07;14.90;99.90
37086;DHT22;23001;45.952;12.676;2023-04-24T08:02:33;14.90;99.90
37086;DHT22;23001;45.952;12.676;2023-04-24T08:04:58;14.90;99.90
37086;DHT22;23001;45.952;12.676;2023-04-24T08:07:24;14.90;99.90
37086;DHT22;23001;45.952;12.676;2023-04-24T08:09:50;14.90;99.90
37086;DHT22;23001;45.952;12.676;2023-04-24T08:12:18;14.90;99.90
37086;DHT22;23001;45.952;12.676;2023-04-24T08:14:44;14.90;99.90
37086;DHT22;23001;45.952;12.676;2023-04-24T08:17:09;15.00;99.90
37086;DHT22;23001;45.952;12.676;2023-04-24T08:19:35;15.00;99.90
37086;DHT22;23001;45.952;12.676;2023-04-24T08:22:01;15.00;99.90
37086;DHT22;23001;45.952;12.676;2023-04-24T08:24:26;15.00;99.90
37086;DHT22;23001;45.952;12.676;2023-04-24T08:26:52;15.00;99.90
37086;DHT22;23001;45.952;12.676;2023-04-24T08:29:19;15.00;99.90
37086;DHT22;23001;45.952;12.676;2023-04-24T08:31:45;15.00;99.90
37086;DHT22;23001;45.952;12.676;2023-04-24T08:34:10;15.00;99.90
37086;DHT22;23001;45.952;12.676;2023-04-24T08:36:36;15.10;99.90
37086;DHT22;23001;45.952;12.676;2023-04-24T08:39:02;15.00;99.90
37086;DHT22;23001;45.952;12.676;2023-04-24T08:41:28;15.00;99.90
37086;DHT22;23001;45.952;12.676;2023-04-24T08:43:54;15.00;99.90
37086;DHT22;23001;45.952;12.676;2023-04-24T08:46:20;15.00;99.90
37086;DHT22;23001;45.952;12.676;2023-04-24T08:48:46;14.90;99.90
37086;DHT22;23001;45.952;12.676;2023-04-24T08:51:11;14.90;99.90
37086;DHT22;23001;45.952;12.676;2023-04-24T08:53:37;14.70;99.90
37086;DHT22;23001;45.952;12.676;2023-04-24T08:56:03;14.70;99.90
37086;DHT22;23001;45.952;12.676;2023-04-24T08:58:29;14.60;99.90
37086;DHT22;23001;45.952;12.676;2023-04-24T09:00:56;14.60;99.90
37086;DHT22;23001;45.952;12.676;2023-04-24T09:03:22;14.60;99.90
37086;DHT22;23001;45.952;12.676;2023-04-24T09:05:48;14.60;99.90
37086;DHT22;23001;45.952;12.676;2023-04-24T09:08:14;14.70;99.90
37086;DHT22;23001;45.952;12.676;2023-04-24T09:10:41;14.70;99.90
37086;DHT22;23001;45.952;12.676;2023-04-24T09:13:07;14.70;99.90
37086;DHT22;23001;45.952;12.676;2023-04-24T09:15:34;14.60;99.90
37086;DHT22;23001;45.952;12.676;2023-04-24T09:18:00;14.60;99.90
37086;DHT22;23001;45.952;12.676;2023-04-24T09:20:26;14.50;99.90
37086;DHT22;23001;45.952;12.676;2023-04-24T09:22:55;14.00;99.90
37086;DHT22;23001;45.952;12.676;2023-04-24T09:25:22;13.90;99.90
37086;DHT22;23001;45.952;12.676;2023-04-24T09:27:47;13.60;99.90
37086;DHT22;23001;45.952;12.676;2023-04-24T09:30:13;13.40;99.90
37086;DHT22;23001;45.952;12.676;2023-04-24T09:32:39;13.20;99.90
37086;DHT22;23001;45.952;12.676;2023-04-24T09:35:10;13.20;99.90
37086;DHT22;23001;45.952;12.676;2023-04-24T09:37:43;13.00;99.90
37086;DHT22;23001;45.952;12.676;2023-04-24T09:40:16;13.10;99.90
37086;DHT22;23001;45.952;12.676;2023-04-24T09:42:45;13.00;99.90
37086;DHT22;23001;45.952;12.676;2023-04-24T09:45:11;13.10;99.90
37086;DHT22;23001;45.952;12.676;2023-04-24T09:47:40;13.10;99.90
37086;DHT22;23001;45.952;12.676;2023-04-24T09:50:15;13.10;99.90
37086;DHT22;23001;45.952;12.676;2023-04-24T09:52:44;13.10;99.90
37086;DHT22;23001;45.952;12.676;2023-04-24T09:55:11;13.20;99.90
37086;DHT22;23001;45.952;12.676;2023-04-24T09:57:46;13.30;99.90
37086;DHT22;23001;45.952;12.676;2023-04-24T10:00:12;13.30;99.90
37086;DHT22;23001;45.952;12.676;2023-04-24T10:02:41;13.40;99.90
37086;DHT22;23001;45.952;12.676;2023-04-24T10:05:10;13.30;99.90
37086;DHT22;23001;45.952;12.676;2023-04-24T10:07:39;13.30;99.90
37086;DHT22;23001;45.952;12.676;2023-04-24T10:10:10;13.20;99.90
37086;DHT22;23001;45.952;12.676;2023-04-24T10:12:36;13.30;99.90
37086;DHT22;23001;45.952;12.676;2023-04-24T10:15:02;13.40;99.90
37086;DHT22;23001;45.952;12.676;2023-04-24T10:17:28;13.40;99.90
37086;DHT22;23001;45.952;12.676;2023-04-24T10:19:54;13.40;99.90
37086;DHT22;23001;45.952;12.676;2023-04-24T10:22:20;13.40;99.90
37086;DHT22;23001;45.952;12.676;2023-04-24T10:24:47;13.40;99.90
37086;DHT22;23001;45.952;12.676;2023-04-24T10:27:12;13.60;99.90
37086;DHT22;23001;45.952;12.676;2023-04-24T10:29:41;13.50;99.90
37086;DHT22;23001;45.952;12.676;2023-04-24T10:32:11;13.30;99.90
37086;DHT22;23001;45.952;12.676;2023-04-24T10:34:36;13.30;99.90
37086;DHT22;23001;45.952;12.676;2023-04-24T10:37:02;13.40;99.90
37086;DHT22;23001;45.952;12.676;2023-04-24T10:39:33;13.40;99.90
37086;DHT22;23001;45.952;12.676;2023-04-24T10:41:59;13.40;99.90
37086;DHT22;23001;45.952;12.676;2023-04-24T10:44:24;13.50;99.90
37086;DHT22;23001;45.952;12.676;2023-04-24T10:46:53;13.60;99.90
37086;DHT22;23001;45.952;12.676;2023-04-24T10:49:27;13.60;99.90
37086;DHT22;23001;45.952;12.676;2023-04-24T10:51:53;13.70;99.90
37086;DHT22;23001;45.952;12.676;2023-04-24T10:54:23;13.60;99.90
37086;DHT22;23001;45.952;12.676;2023-04-24T10:56:49;13.60;99.90
37086;DHT22;23001;45.952;12.676;2023-04-24T10:59:23;13.60;99.90
37086;DHT22;23001;45.952;12.676;2023-04-24T11:01:52;13.70;99.90
37086;DHT22;23001;45.952;12.676;2023-04-24T11:04:22;13.70;99.90
37086;DHT22;23001;45.952;12.676;2023-04-24T11:06:54;13.70;99.90
37086;DHT22;23001;45.952;12.676;2023-04-24T11:09:19;13.70;99.90
37086;DHT22;23001;45.952;12.676;2023-04-24T11:11:46;13.80;99.90
37086;DHT22;23001;45.952;12.676;2023-04-24T11:14:15;13.80;99.90
37086;DHT22;23001;45.952;12.676;2023-04-24T11:21:39;13.60;99.90
37086;DHT22;23001;45.952;12.676;2023-04-24T11:26:54;13.50;99.90
37086;DHT22;23001;45.952;12.676;2023-04-24T11:29:20;13.50;99.90
37086;DHT22;23001;45.952;12.676;2023-04-24T11:31:46;13.40;99.90
37086;DHT22;23001;45.952;12.676;2023-04-24T11:34:15;13.40;99.90
37086;DHT22;23001;45.952;12.676;2023-04-24T11:36:55;13.40;99.90
37086;DHT22;23001;45.952;12.676;2023-04-24T11:39:35;13.50;99.90
37086;DHT22;23001;45.952;12.676;2023-04-24T11:42:04;13.60;99.90
37086;DHT22;23001;45.952;12.676;2023-04-24T11:44:32;13.60;99.90
37086;DHT22;23001;45.952;12.676;2023-04-24T11:46:58;13.70;99.90
37086;DHT22;23001;45.952;12.676;2023-04-24T11:49:24;13.70;99.90
37086;DHT22;23001;45.952;12.676;2023-04-24T11:51:50;13.80;99.90
37086;DHT22;23001;45.952;12.676;2023-04-24T11:54:23;13.90;99.90
37086;DHT22;23001;45.952;12.676;2023-04-24T11:56:49;13.80;99.90
37086;DHT22;23001;45.952;12.676;2023-04-24T11:59:23;13.90;99.90
37086;DHT22;23001;45.952;12.676;2023-04-24T12:01:49;14.00;99.90
37086;DHT22;23001;45.952;12.676;2023-04-24T12:04:18;14.10;99.90
37086;DHT22;23001;45.952;12.676;2023-04-24T12:15:47;14.40;99.90
37086;DHT22;23001;45.952;12.676;2023-04-24T12:18:17;14.30;99.90
37086;DHT22;23001;45.952;12.676;2023-04-24T12:24:01;14.30;99.90
37086;DHT22;23001;45.952;12.676;2023-04-24T12:26:26;14.40;99.90
37086;DHT22;23001;45.952;12.676;2023-04-24T12:28:52;14.50;99.90
37086;DHT22;23001;45.952;12.676;2023-04-24T12:31:18;14.60;99.90
37086;DHT22;23001;45.952;12.676;2023-04-24T12:33:45;14.70;99.90
37086;DHT22;23001;45.952;12.676;2023-04-24T12:36:11;14.80;99.90
37086;DHT22;23001;45.952;12.676;2023-04-24T12:38:37;14.90;99.90
37086;DHT22;23001;45.952;12.676;2023-04-24T12:41:21;14.80;99.90
37086;DHT22;23001;45.952;12.676;2023-04-24T12:43:50;14.70;99.90
37086;DHT22;23001;45.952;12.676;2023-04-24T12:46:16;14.80;99.90
37086;DHT22;23001;45.952;12.676;2023-04-24T12:48:42;14.90;99.90
37086;DHT22;23001;45.952;12.676;2023-04-24T12:51:10;14.90;99.90
37086;DHT22;23001;45.952;12.676;2023-04-24T12:53:40;15.00;99.90
37086;DHT22;23001;45.952;12.676;2023-04-24T12:56:11;15.10;99.90
37086;DHT22;23001;45.952;12.676;2023-04-24T12:58:42;15.00;99.90
37086;DHT22;23001;45.952;12.676;2023-04-24T13:01:08;14.90;99.90
37086;DHT22;23001;45.952;12.676;2023-04-24T13:03:34;15.00;99.90
37086;DHT22;23001;45.952;12.676;2023-04-24T13:05:59;15.10;99.90
37086;DHT22;23001;45.952;12.676;2023-04-24T13:08:34;15.00;99.90
37086;DHT22;23001;45.952;12.676;2023-04-24T13:11:03;15.10;99.90
37086;DHT22;23001;45.952;12.676;2023-04-24T13:13:29;15.10;99.90
37086;DHT22;23001;45.952;12.676;2023-04-24T13:15:54;15.20;99.90
37086;DHT22;23001;45.952;12.676;2023-04-24T13:18:20;15.30;99.90
37086;DHT22;23001;45.952;12.676;2023-04-24T13:20:48;15.30;99.90
37086;DHT22;23001;45.952;12.676;2023-04-24T13:26:19;15.50;99.90
37086;DHT22;23001;45.952;12.676;2023-04-24T13:31:21;15.60;99.90
37086;DHT22;23001;45.952;12.676;2023-04-24T13:33:47;15.70;99.90
37086;DHT22;23001;45.952;12.676;2023-04-24T13:36:20;15.60;99.90
37086;DHT22;23001;45.952;12.676;2023-04-24T13:42:10;15.60;99.90
37086;DHT22;23001;45.952;12.676;2023-04-24T13:44:39;15.70;99.90
37086;DHT22;23001;45.952;12.676;2023-04-24T13:47:05;15.70;99.90
37086;DHT22;23001;45.952;12.676;2023-04-24T13:52:40;15.60;99.90
37086;DHT22;23001;45.952;12.676;2023-04-24T14:41:08;16.00;99.90
37086;DHT22;23001;45.952;12.676;2023-04-24T14:46:41;16.00;99.90
37086;DHT22;23001;45.952;12.676;2023-04-24T14:49:07;15.90;99.90
37086;DHT22;23001;45.952;12.676;2023-04-24T14:51:35;16.00;99.90
37086;DHT22;23001;45.952;12.676;2023-04-24T14:54:01;16.00;99.90
37086;DHT22;23001;45.952;12.676;2023-04-24T14:56:27;16.00;99.90
37086;DHT22;23001;45.952;12.676;2023-04-24T14:58:52;16.00;99.90
37086;DHT22;23001;45.952;12.676;2023-04-24T15:01:27;16.00;99.90
37086;DHT22;23001;45.952;12.676;2023-04-24T15:03:58;16.00;99.90
37086;DHT22;23001;45.952;12.676;2023-04-24T15:06:27;16.00;99.90
37086;DHT22;23001;45.952;12.676;2023-04-24T15:09:13;16.10;99.90
37086;DHT22;23001;45.952;12.676;2023-04-24T15:11:39;16.00;99.90
37086;DHT22;23001;45.952;12.676;2023-04-24T15:14:05;15.90;99.90
37086;DHT22;23001;45.952;12.676;2023-04-24T15:19:35;16.00;99.90
37086;DHT22;23001;45.952;12.676;2023-04-24T15:22:14;16.00;99.90
37086;DHT22;23001;45.952;12.676;2023-04-24T15:24:40;16.00;99.90
37086;DHT22;23001;45.952;12.676;2023-04-24T15:27:08;16.00;99.90
37086;DHT22;23001;45.952;12.676;2023-04-24T15:29:37;16.00;99.90
37086;DHT22;23001;45.952;12.676;2023-04-24T15:32:05;16.10;99.90
37086;DHT22;23001;45.952;12.676;2023-04-24T15:34:31;16.00;99.90
37086;DHT22;23001;45.952;12.676;2023-04-24T15:36:59;15.90;99.90
37086;DHT22;23001;45.952;12.676;2023-04-24T16:05:07;15.70;99.90
37086;DHT22;23001;45.952;12.676;2023-04-24T16:08:10;15.70;99.90
37086;DHT22;23001;45.952;12.676;2023-04-24T16:35:41;16.00;99.90
37086;DHT22;23001;45.952;12.676;2023-04-24T16:38:15;16.00;99.90
37086;DHT22;23001;45.952;12.676;2023-04-24T16:44:21;16.10;99.90
37086;DHT22;23001;45.952;12.676;2023-04-24T16:46:56;16.20;99.90
37086;DHT22;23001;45.952;12.676;2023-04-24T16:49:22;16.10;99.90
37086;DHT22;23001;45.952;12.676;2023-04-24T16:51:48;16.20;99.90
37086;DHT22;23001;45.952;12.676;2023-04-24T16:57:21;16.10;99.90
37086;DHT22;23001;45.952;12.676;2023-04-24T17:00:32;15.90;99.90
37086;DHT22;23001;45.952;12.676;2023-04-24T17:02:45;16.00;99.90
37086;DHT22;23001;45.952;12.676;2023-04-24T17:05:18;15.90;99.90
37086;DHT22;23001;45.952;12.676;2023-04-24T17:14:03;15.70;99.90
37086;DHT22;23001;45.952;12.676;2023-04-24T17:16:36;15.60;99.90
37086;DHT22;23001;45.952;12.676;2023-04-24T17:19:02;15.60;99.90
37086;DHT22;23001;45.952;12.676;2023-04-24T17:21:41;15.60;99.90
37086;DHT22;23001;45.952;12.676;2023-04-24T17:27:31;15.40;99.90
37086;DHT22;23001;45.952;12.676;2023-04-24T17:29:57;15.20;99.90
37086;DHT22;23001;45.952;12.676;2023-04-24T17:32:26;15.10;99.90
37086;DHT22;23001;45.952;12.676;2023-04-24T17:34:51;15.10;99.90
37086;DHT22;23001;45.952;12.676;2023-04-24T17:37:25;15.10;99.90
37086;DHT22;23001;45.952;12.676;2023-04-24T17:42:58;14.90;99.90
37086;DHT22;23001;45.952;12.676;2023-04-24T17:51:55;14.60;99.90
37086;DHT22;23001;45.952;12.676;2023-04-24T17:57:40;14.50;99.90
37086;DHT22;23001;45.952;12.676;2023-04-24T18:09:30;14.20;99.90